createdAt,value
2015-09-10T00:00:02.279Z,95987
2015-09-10T00:00:20.734Z,95992
2015-09-10T00:00:39.359Z,95984
2015-09-10T00:00:57.797Z,95987
2015-09-10T00:01:16.172Z,95987
2015-09-10T00:01:34.706Z,95995
2015-09-10T00:01:53.128Z,95989
2015-09-10T00:02:11.534Z,95990
2015-09-10T00:02:30.035Z,95988
2015-09-10T00:02:48.660Z,95991
2015-09-10T00:03:07.051Z,95988
2015-09-10T00:03:25.475Z,95985
2015-09-10T00:03:43.834Z,95993
2015-09-10T00:04:02.381Z,95987
2015-09-10T00:04:20.850Z,95984
2015-09-10T00:04:39.414Z,95987
2015-09-10T00:04:58.008Z,95982
2015-09-10T00:05:16.461Z,95990
2015-09-10T00:05:34.947Z,95987
2015-09-10T00:05:53.432Z,95988
2015-09-10T00:06:11.822Z,95975
2015-09-10T00:06:30.340Z,95995
2015-09-10T00:06:48.778Z,95983
2015-09-10T00:07:07.418Z,95997
2015-09-10T00:07:25.996Z,95994
2015-09-10T00:07:44.576Z,95985
2015-09-10T00:08:02.951Z,95983
2015-09-10T00:08:21.405Z,95988
2015-09-10T00:08:40.141Z,95991
2015-09-10T00:08:58.532Z,95997
2015-09-10T00:09:16.938Z,95989
2015-09-10T00:09:35.518Z,95978
2015-09-10T00:09:54.065Z,95994
2015-09-10T00:10:12.705Z,95985
2015-09-10T00:10:31.114Z,95985
2015-09-10T00:10:49.051Z,95993
2015-09-10T00:11:07.786Z,95984
2015-09-10T00:11:26.348Z,95996
2015-09-10T00:11:44.788Z,95991
2015-09-10T00:12:03.366Z,95999
2015-09-10T00:12:21.772Z,95993
2015-09-10T00:12:40.430Z,95996
2015-09-10T00:12:59.024Z,95996
2015-09-10T00:13:17.399Z,95996
2015-09-10T00:13:35.838Z,95991
2015-09-10T00:13:54.401Z,95985
2015-09-10T00:14:13.026Z,95999
2015-09-10T00:14:31.682Z,95985
2015-09-10T00:14:50.136Z,95991
2015-09-10T00:15:08.558Z,95992
2015-09-10T00:15:27.105Z,95999
2015-09-10T00:15:45.591Z,95981
2015-09-10T00:16:04.295Z,95997
2015-09-10T00:16:22.826Z,95989
2015-09-10T00:16:41.235Z,95990
2015-09-10T00:16:59.907Z,95987
2015-09-10T00:17:18.407Z,95987
2015-09-10T00:17:36.985Z,95987
2015-09-10T00:17:55.533Z,95987
2015-09-10T00:18:14.111Z,95989
2015-09-10T00:18:32.533Z,95987
2015-09-10T00:18:51.005Z,95987
2015-09-10T00:19:09.395Z,95992
2015-09-10T00:19:27.833Z,95987
2015-09-10T00:19:46.381Z,95995
2015-09-10T00:20:04.771Z,95993
2015-09-10T00:20:23.334Z,95988
2015-09-10T00:20:41.771Z,95982
2015-09-10T00:21:00.336Z,95982
2015-09-10T00:21:18.789Z,95980
2015-09-10T00:21:37.289Z,95977
2015-09-10T00:21:55.838Z,95980
2015-09-10T00:22:14.432Z,95982
2015-09-10T00:22:32.994Z,95984
2015-09-10T00:22:51.465Z,95996
2015-09-10T00:23:09.855Z,95993
2015-09-10T00:23:28.418Z,95982
2015-09-10T00:23:47.012Z,95985
2015-09-10T00:24:05.826Z,95985
2015-09-10T00:24:24.326Z,95987
2015-09-10T00:24:42.889Z,95979
2015-09-10T00:25:01.297Z,95983
2015-09-10T00:25:19.750Z,95993
2015-09-10T00:25:38.297Z,95996
2015-09-10T00:25:56.877Z,95993
2015-09-10T00:26:15.393Z,95990
2015-09-10T00:26:34.018Z,95990
2015-09-10T00:26:52.377Z,95984
2015-09-10T00:27:10.911Z,95990
2015-09-10T00:27:29.568Z,95982
2015-09-10T00:27:48.255Z,95987
2015-09-10T00:28:06.773Z,95992
2015-09-10T00:28:25.288Z,95989
2015-09-10T00:28:43.898Z,95986
2015-09-10T00:29:02.274Z,95989
2015-09-10T00:29:20.836Z,95984
2015-09-10T00:29:39.242Z,95989
2015-09-10T00:29:57.727Z,95987
2015-09-10T00:30:16.119Z,95992
2015-09-10T00:30:34.823Z,95980
2015-09-10T00:30:53.198Z,95991
2015-09-10T00:31:11.606Z,95986
2015-09-10T00:31:30.231Z,95980
2015-09-10T00:31:48.653Z,95983
2015-09-10T00:32:07.249Z,95988
2015-09-10T00:32:25.734Z,95991
2015-09-10T00:32:44.171Z,95974
2015-09-10T00:33:02.563Z,95979
2015-09-10T00:33:20.969Z,95987
2015-09-10T00:33:39.375Z,95995
2015-09-10T00:33:57.954Z,95988
2015-09-10T00:34:16.424Z,95987
2015-09-10T00:34:34.924Z,95974
2015-09-10T00:34:53.502Z,95988
2015-09-10T00:35:12.035Z,95988
2015-09-10T00:35:30.363Z,95985
2015-09-10T00:35:48.925Z,95993
2015-09-10T00:36:07.522Z,95982
2015-09-10T00:36:26.178Z,95985
2015-09-10T00:36:44.553Z,95993
2015-09-10T00:37:03.022Z,95993
2015-09-10T00:37:21.586Z,95988
2015-09-10T00:37:40.101Z,95993
2015-09-10T00:37:58.664Z,95983
2015-09-10T00:38:17.104Z,95985
2015-09-10T00:38:35.573Z,95985
2015-09-10T00:38:54.120Z,95985
2015-09-10T00:39:12.496Z,95988
2015-09-10T00:39:30.980Z,95980
2015-09-10T00:39:49.496Z,95979
2015-09-10T00:40:08.343Z,95985
2015-09-10T00:40:26.718Z,95981
2015-09-10T00:40:45.093Z,95984
2015-09-10T00:41:03.452Z,95982
2015-09-10T00:41:22.125Z,95984
2015-09-10T00:41:40.750Z,95981
2015-09-10T00:41:59.328Z,95976
2015-09-10T00:42:17.706Z,95982
2015-09-10T00:42:36.128Z,95982
2015-09-10T00:42:54.487Z,95984
2015-09-10T00:43:13.052Z,95979
2015-09-10T00:43:31.770Z,95981
2015-09-10T00:43:50.536Z,95987
2015-09-10T00:44:08.895Z,95995
2015-09-10T00:44:27.271Z,95989
2015-09-10T00:44:45.771Z,95994
2015-09-10T00:45:04.412Z,95991
2015-09-10T00:45:23.008Z,95985
2015-09-10T00:45:41.695Z,95988
2015-09-10T00:46:00.289Z,95983
2015-09-10T00:46:19.072Z,95987
2015-09-10T00:46:37.572Z,95981
2015-09-10T00:46:56.041Z,95993
2015-09-10T00:47:14.463Z,95985
2015-09-10T00:47:32.919Z,95987
2015-09-10T00:47:51.450Z,95987
2015-09-10T00:48:09.903Z,95987
2015-09-10T00:48:28.670Z,95984
2015-09-10T00:48:47.248Z,95979
2015-09-10T00:49:05.639Z,95988
2015-09-10T00:49:24.406Z,95971
2015-09-10T00:49:43.016Z,95979
2015-09-10T00:50:01.406Z,95979
2015-09-10T00:50:19.875Z,95971
2015-09-10T00:50:38.738Z,95976
2015-09-10T00:50:57.097Z,95984
2015-09-10T00:51:15.706Z,95978
2015-09-10T00:51:34.177Z,95984
2015-09-10T00:51:52.583Z,95984
2015-09-10T00:52:11.021Z,95981
2015-09-10T00:52:29.459Z,95981
2015-09-10T00:52:48.241Z,95976
2015-09-10T00:53:06.881Z,95981
2015-09-10T00:53:25.539Z,95975
2015-09-10T00:53:44.055Z,95981
2015-09-10T00:54:02.758Z,95972
2015-09-10T00:54:21.383Z,95964
2015-09-10T00:54:39.760Z,95973
2015-09-10T00:54:58.307Z,95976
2015-09-10T00:55:16.791Z,95982
2015-09-10T00:55:35.293Z,95973
2015-09-10T00:55:53.840Z,95978
2015-09-10T00:56:12.418Z,95965
2015-09-10T00:56:30.952Z,95978
2015-09-10T00:56:49.374Z,95980
2015-09-10T00:57:07.827Z,95975
2015-09-10T00:57:26.342Z,95985
2015-09-10T00:57:44.735Z,95980
2015-09-10T00:58:03.172Z,95975
2015-09-10T00:58:21.688Z,95980
2015-09-10T00:58:40.081Z,95981
2015-09-10T00:58:58.706Z,95966
2015-09-10T00:59:17.128Z,95966
2015-09-10T00:59:35.583Z,95974
2015-09-10T00:59:54.145Z,95982
2015-09-10T01:00:12.505Z,95976
2015-09-10T01:00:31.083Z,95973
2015-09-10T01:00:49.600Z,95973
2015-09-10T01:01:08.022Z,95970
2015-09-10T01:01:26.491Z,95973
2015-09-10T01:01:45.024Z,95981
2015-09-10T01:02:03.384Z,95975
2015-09-10T01:02:21.743Z,95976
2015-09-10T01:02:40.119Z,95979
2015-09-10T01:02:58.541Z,95976
2015-09-10T01:03:16.916Z,95980
2015-09-10T01:03:35.291Z,95974
2015-09-10T01:03:53.918Z,95979
2015-09-10T01:04:12.558Z,95976
2015-09-10T01:04:31.199Z,95973
2015-09-10T01:04:49.796Z,95978
2015-09-10T01:05:08.202Z,95972
2015-09-10T01:05:27.124Z,95975
2015-09-10T01:05:45.985Z,95967
2015-09-10T01:06:04.673Z,95981
2015-09-10T01:06:23.032Z,95972
2015-09-10T01:06:41.627Z,95976
2015-09-10T01:07:00.205Z,95981
2015-09-10T01:07:18.783Z,95976
2015-09-10T01:07:37.127Z,95971
2015-09-10T01:07:55.661Z,95979
2015-09-10T01:08:13.364Z,95976
2015-09-10T01:08:31.739Z,95973
2015-09-10T01:08:50.116Z,95971
2015-09-10T01:09:08.757Z,95971
2015-09-10T01:09:27.319Z,95972
2015-09-10T01:09:45.805Z,95967
2015-09-10T01:10:04.336Z,95966
2015-09-10T01:10:22.914Z,95975
2015-09-10T01:10:41.539Z,95978
2015-09-10T01:11:00.010Z,95962
2015-09-10T01:11:18.385Z,95963
2015-09-10T01:11:37.197Z,95970
2015-09-10T01:11:55.590Z,95959
2015-09-10T01:12:14.137Z,95973
2015-09-10T01:12:32.496Z,95970
2015-09-10T01:12:50.889Z,95976
2015-09-10T01:13:09.280Z,95963
2015-09-10T01:13:27.842Z,95960
2015-09-10T01:13:46.201Z,95971
2015-09-10T01:14:04.797Z,95963
2015-09-10T01:14:23.516Z,95965
2015-09-10T01:14:42.063Z,95962
2015-09-10T01:15:00.472Z,95962
2015-09-10T01:15:18.863Z,95965
2015-09-10T01:15:37.269Z,95973
2015-09-10T01:15:55.786Z,95962
2015-09-10T01:16:14.395Z,95959
2015-09-10T01:16:32.801Z,95955
2015-09-10T01:16:51.176Z,95960
2015-09-10T01:17:09.664Z,95960
2015-09-10T01:17:28.070Z,95972
2015-09-10T01:17:46.476Z,95965
2015-09-10T01:18:04.946Z,95965
2015-09-10T01:18:23.336Z,95965
2015-09-10T01:18:41.711Z,95959
2015-09-10T01:19:00.088Z,95957
2015-09-10T01:19:18.620Z,95972
2015-09-10T01:19:37.417Z,95959
2015-09-10T01:19:55.995Z,95961
2015-09-10T01:20:14.778Z,95961
2015-09-10T01:20:33.372Z,95953
2015-09-10T01:20:51.825Z,95961
2015-09-10T01:21:10.546Z,95961
2015-09-10T01:21:28.967Z,95964
2015-09-10T01:21:47.358Z,95952
2015-09-10T01:22:05.751Z,95963
2015-09-10T01:22:24.219Z,95963
2015-09-10T01:22:42.610Z,95950
2015-09-10T01:23:01.094Z,95958
2015-09-10T01:23:19.518Z,95963
2015-09-10T01:23:37.893Z,95966
2015-09-10T01:23:56.378Z,95958
2015-09-10T01:24:14.864Z,95950
2015-09-10T01:24:33.395Z,95958
2015-09-10T01:24:51.848Z,95949
2015-09-10T01:25:10.491Z,95952
2015-09-10T01:25:29.007Z,95963
2015-09-10T01:25:47.616Z,95953
2015-09-10T01:26:06.022Z,95956
2015-09-10T01:26:24.446Z,95950
2015-09-10T01:26:42.806Z,95953
2015-09-10T01:27:01.399Z,95953
2015-09-10T01:27:19.885Z,95958
2015-09-10T01:27:38.322Z,95964
2015-09-10T01:27:56.932Z,95947
2015-09-10T01:28:15.435Z,95956
2015-09-10T01:28:34.200Z,95958
2015-09-10T01:28:52.997Z,95950
2015-09-10T01:29:11.374Z,95953
2015-09-10T01:29:29.890Z,95950
2015-09-10T01:29:48.718Z,95951
2015-09-10T01:30:07.327Z,95959
2015-09-10T01:30:25.798Z,95951
2015-09-10T01:30:44.423Z,95948
2015-09-10T01:31:02.939Z,95953
2015-09-10T01:31:21.331Z,95948
2015-09-10T01:31:39.691Z,95945
2015-09-10T01:31:58.050Z,95948
2015-09-10T01:32:16.614Z,95942
2015-09-10T01:32:35.427Z,95948
2015-09-10T01:32:53.896Z,95946
2015-09-10T01:33:12.364Z,95951
2015-09-10T01:33:30.928Z,95951
2015-09-10T01:33:49.490Z,95951
2015-09-10T01:34:08.006Z,95946
2015-09-10T01:34:26.461Z,95937
2015-09-10T01:34:44.867Z,95948
2015-09-10T01:35:03.508Z,95943
2015-09-10T01:35:21.902Z,95949
2015-09-10T01:35:40.386Z,95943
2015-09-10T01:35:58.792Z,95947
2015-09-10T01:36:17.324Z,95944
2015-09-10T01:36:35.887Z,95941
2015-09-10T01:36:54.450Z,95952
2015-09-10T01:37:12.950Z,95947
2015-09-10T01:37:31.405Z,95944
2015-09-10T01:37:49.998Z,95952
2015-09-10T01:38:08.467Z,95947
2015-09-10T01:38:27.001Z,95944
2015-09-10T01:38:45.611Z,95942
2015-09-10T01:39:04.080Z,95947
2015-09-10T01:39:23.066Z,95939
2015-09-10T01:39:41.785Z,95953
2015-09-10T01:40:00.175Z,95945
2015-09-10T01:40:18.550Z,95948
2015-09-10T01:40:36.911Z,95956
2015-09-10T01:40:55.395Z,95948
2015-09-10T01:41:13.848Z,95950
2015-09-10T01:41:32.304Z,95953
2015-09-10T01:41:50.757Z,95958
2015-09-10T01:42:09.179Z,95953
2015-09-10T01:42:27.618Z,95956
2015-09-10T01:42:46.165Z,95958
2015-09-10T01:43:04.837Z,95948
2015-09-10T01:43:23.587Z,95945
2015-09-10T01:43:42.010Z,95951
2015-09-10T01:44:00.542Z,95945
2015-09-10T01:44:18.901Z,95945
2015-09-10T01:44:37.451Z,95951
2015-09-10T01:44:56.045Z,95951
2015-09-10T01:45:14.529Z,95952
2015-09-10T01:45:32.999Z,95948
2015-09-10T01:45:51.452Z,95955
2015-09-10T01:46:09.811Z,95944
2015-09-10T01:46:28.389Z,95960
2015-09-10T01:46:47.001Z,95952
2015-09-10T01:47:05.485Z,95944
2015-09-10T01:47:23.891Z,95961
2015-09-10T01:47:42.268Z,95945
2015-09-10T01:48:00.909Z,95948
2015-09-10T01:48:19.362Z,95940
2015-09-10T01:48:37.770Z,95951
2015-09-10T01:48:56.302Z,95953
2015-09-10T01:49:14.958Z,95948
2015-09-10T01:49:33.317Z,95944
2015-09-10T01:49:51.960Z,95956
2015-09-10T01:50:09.710Z,95948
2015-09-10T01:50:28.366Z,95951
2015-09-10T01:50:46.742Z,95945
2015-09-10T01:51:05.242Z,95956
2015-09-10T01:51:23.898Z,95949
2015-09-10T01:51:42.385Z,95952
2015-09-10T01:52:00.775Z,95960
2015-09-10T01:52:19.338Z,95952
2015-09-10T01:52:37.857Z,95952
2015-09-10T01:52:56.278Z,95949
2015-09-10T01:53:14.982Z,95959
2015-09-10T01:53:33.497Z,95945
2015-09-10T01:53:51.889Z,95954
2015-09-10T01:54:10.404Z,95951
2015-09-10T01:54:29.045Z,95943
2015-09-10T01:54:47.453Z,95945
2015-09-10T01:55:06.078Z,95961
2015-09-10T01:55:24.563Z,95948
2015-09-10T01:55:42.987Z,95953
2015-09-10T01:56:01.518Z,95958
2015-09-10T01:56:19.940Z,95958
2015-09-10T01:56:38.315Z,95950
2015-09-10T01:56:56.724Z,95949
2015-09-10T01:57:15.302Z,95953
2015-09-10T01:57:34.083Z,95955
2015-09-10T01:57:52.538Z,95945
2015-09-10T01:58:10.898Z,95948
2015-09-10T01:58:29.257Z,95951
2015-09-10T01:58:47.619Z,95945
2015-09-10T01:59:05.978Z,95959
2015-09-10T01:59:24.603Z,95956
2015-09-10T01:59:42.962Z,95950
2015-09-10T02:00:01.480Z,95945
2015-09-10T02:00:19.980Z,95955
2015-09-10T02:00:38.449Z,95953
2015-09-10T02:00:57.091Z,95950
2015-09-10T02:01:15.466Z,95953
2015-09-10T02:01:33.826Z,95945
2015-09-10T02:01:52.265Z,95945
2015-09-10T02:02:10.625Z,95950
2015-09-10T02:02:29.171Z,95940
2015-09-10T02:02:47.657Z,95948
2015-09-10T02:03:06.110Z,95932
2015-09-10T02:03:24.657Z,95951
2015-09-10T02:03:43.079Z,95940
2015-09-10T02:04:01.785Z,95943
2015-09-10T02:04:20.207Z,95949
2015-09-10T02:04:38.582Z,95951
2015-09-10T02:04:57.130Z,95954
2015-09-10T02:05:15.520Z,95951
2015-09-10T02:05:34.036Z,95943
2015-09-10T02:05:52.428Z,95948
2015-09-10T02:06:10.882Z,95945
2015-09-10T02:06:29.507Z,95956
2015-09-10T02:06:47.882Z,95947
2015-09-10T02:07:06.274Z,95945
2015-09-10T02:07:24.634Z,95940
2015-09-10T02:07:42.993Z,95946
2015-09-10T02:08:01.542Z,95943
2015-09-10T02:08:20.011Z,95955
2015-09-10T02:08:38.511Z,95943
2015-09-10T02:08:57.184Z,95943
2015-09-10T02:09:15.841Z,95946
2015-09-10T02:09:34.200Z,95941
2015-09-10T02:09:52.622Z,95952
2015-09-10T02:10:11.125Z,95948
2015-09-10T02:10:29.484Z,95948
2015-09-10T02:10:48.047Z,95940
2015-09-10T02:11:06.595Z,95935
2015-09-10T02:11:25.032Z,95940
2015-09-10T02:11:43.532Z,95943
2015-09-10T02:12:02.097Z,95938
2015-09-10T02:12:20.472Z,95938
2015-09-10T02:12:38.831Z,95946
2015-09-10T02:12:57.472Z,95946
2015-09-10T02:13:16.005Z,95948
2015-09-10T02:13:34.489Z,95945
2015-09-10T02:13:53.067Z,95934
2015-09-10T02:14:11.788Z,95940
2015-09-10T02:14:30.476Z,95940
2015-09-10T02:14:49.226Z,95946
2015-09-10T02:15:07.586Z,95945
2015-09-10T02:15:26.055Z,95956
2015-09-10T02:15:44.727Z,95948
2015-09-10T02:16:03.164Z,95940
2015-09-10T02:16:21.730Z,95943
2015-09-10T02:16:40.089Z,95940
2015-09-10T02:16:58.464Z,95940
2015-09-10T02:17:17.029Z,95935
2015-09-10T02:17:35.404Z,95948
2015-09-10T02:17:53.825Z,95940
2015-09-10T02:18:12.280Z,95943
2015-09-10T02:18:30.686Z,95945
2015-09-10T02:18:49.358Z,95940
2015-09-10T02:19:07.733Z,95946
2015-09-10T02:19:26.220Z,95930
2015-09-10T02:19:44.642Z,95941
2015-09-10T02:20:03.048Z,95935
2015-09-10T02:20:21.424Z,95938
2015-09-10T02:20:39.971Z,95941
2015-09-10T02:20:58.362Z,95938
2015-09-10T02:21:16.943Z,95938
2015-09-10T02:21:35.443Z,95949
2015-09-10T02:21:54.146Z,95930
2015-09-10T02:22:12.522Z,95940
2015-09-10T02:22:31.194Z,95938
2015-09-10T02:22:49.631Z,95944
2015-09-10T02:23:08.053Z,95938
2015-09-10T02:23:26.602Z,95941
2015-09-10T02:23:45.102Z,95936
2015-09-10T02:24:03.555Z,95944
2015-09-10T02:24:21.980Z,95941
2015-09-10T02:24:40.496Z,95938
2015-09-10T02:24:59.152Z,95930
2015-09-10T02:25:17.654Z,95941
2015-09-10T02:25:36.232Z,95938
2015-09-10T02:25:54.763Z,95938
2015-09-10T02:26:13.216Z,95944
2015-09-10T02:26:31.639Z,95947
2015-09-10T02:26:50.061Z,95942
2015-09-10T02:27:08.577Z,95947
2015-09-10T02:27:27.095Z,95933
2015-09-10T02:27:45.455Z,95944
2015-09-10T02:28:04.064Z,95941
2015-09-10T02:28:22.426Z,95936
2015-09-10T02:28:40.910Z,95938
2015-09-10T02:28:59.301Z,95936
2015-09-10T02:29:17.801Z,95941
2015-09-10T02:29:36.052Z,95950
2015-09-10T02:29:54.692Z,95950
2015-09-10T02:30:13.192Z,95931
2015-09-10T02:30:31.601Z,95947
2015-09-10T02:30:49.961Z,95947
2015-09-10T02:31:08.539Z,95939
2015-09-10T02:31:26.946Z,95950
2015-09-10T02:31:45.415Z,95944
2015-09-10T02:32:03.868Z,95944
2015-09-10T02:32:22.415Z,95936
2015-09-10T02:32:40.761Z,95947
2015-09-10T02:32:59.401Z,95939
2015-09-10T02:33:17.761Z,95941
2015-09-10T02:33:36.169Z,95941
2015-09-10T02:33:54.794Z,95952
2015-09-10T02:34:13.169Z,95935
2015-09-10T02:34:31.640Z,95938
2015-09-10T02:34:50.046Z,95944
2015-09-10T02:35:08.718Z,95943
2015-09-10T02:35:27.173Z,95938
2015-09-10T02:35:45.735Z,95938
2015-09-10T02:36:04.251Z,95946
2015-09-10T02:36:22.642Z,95935
2015-09-10T02:36:41.081Z,95946
2015-09-10T02:36:59.534Z,95938
2015-09-10T02:37:18.206Z,95947
2015-09-10T02:37:36.568Z,95939
2015-09-10T02:37:55.052Z,95939
2015-09-10T02:38:13.568Z,95942
2015-09-10T02:38:31.929Z,95945
2015-09-10T02:38:50.320Z,95936
2015-09-10T02:39:08.757Z,95942
2015-09-10T02:39:27.163Z,95928
2015-09-10T02:39:45.525Z,95939
2015-09-10T02:40:03.947Z,95934
2015-09-10T02:40:22.415Z,95945
2015-09-10T02:40:40.792Z,95939
2015-09-10T02:40:59.167Z,95939
2015-09-10T02:41:17.527Z,95931
2015-09-10T02:41:35.917Z,95934
2015-09-10T02:41:54.466Z,95939
2015-09-10T02:42:13.060Z,95932
2015-09-10T02:42:31.482Z,95937
2015-09-10T02:42:49.953Z,95937
2015-09-10T02:43:08.609Z,95932
2015-09-10T02:43:27.124Z,95934
2015-09-10T02:43:45.658Z,95931
2015-09-10T02:44:04.080Z,95928
2015-09-10T02:44:22.658Z,95936
2015-09-10T02:44:41.207Z,95945
2015-09-10T02:44:59.675Z,95936
2015-09-10T02:45:18.066Z,95937
2015-09-10T02:45:36.410Z,95934
2015-09-10T02:45:54.818Z,95937
2015-09-10T02:46:13.240Z,95932
2015-09-10T02:46:31.677Z,95937
2015-09-10T02:46:50.054Z,95931
2015-09-10T02:47:08.632Z,95940
2015-09-10T02:47:27.336Z,95932
2015-09-10T02:47:45.947Z,95937
2015-09-10T02:48:04.431Z,95943
2015-09-10T02:48:23.119Z,95935
2015-09-10T02:48:41.494Z,95932
2015-09-10T02:48:59.746Z,95944
2015-09-10T02:49:18.371Z,95941
2015-09-10T02:49:37.074Z,95935
2015-09-10T02:49:55.654Z,95946
2015-09-10T02:50:14.232Z,95936
2015-09-10T02:50:32.763Z,95938
2015-09-10T02:50:51.311Z,95930
2015-09-10T02:51:10.046Z,95938
2015-09-10T02:51:28.358Z,95930
2015-09-10T02:51:46.764Z,95944
2015-09-10T02:52:05.501Z,95922
2015-09-10T02:52:23.985Z,95931
2015-09-10T02:52:42.376Z,95942
2015-09-10T02:53:00.737Z,95942
2015-09-10T02:53:19.159Z,95947
2015-09-10T02:53:37.878Z,95928
2015-09-10T02:53:56.224Z,95945
2015-09-10T02:54:14.583Z,95939
2015-09-10T02:54:32.958Z,95942
2015-09-10T02:54:51.380Z,95942
2015-09-10T02:55:09.866Z,95937
2015-09-10T02:55:28.288Z,95934
2015-09-10T02:55:47.116Z,95943
2015-09-10T02:56:05.744Z,95935
2015-09-10T02:56:24.150Z,95935
2015-09-10T02:56:42.744Z,95929
2015-09-10T02:57:01.339Z,95930
2015-09-10T02:57:19.792Z,95933
2015-09-10T02:57:38.183Z,95933
2015-09-10T02:57:56.763Z,95930
2015-09-10T02:58:15.325Z,95936
2015-09-10T02:58:33.732Z,95939
2015-09-10T02:58:52.122Z,95936
2015-09-10T02:59:10.891Z,95933
2015-09-10T02:59:29.422Z,95929
2015-09-10T02:59:48.000Z,95932
2015-09-10T03:00:06.782Z,95937
2015-09-10T03:00:25.220Z,95923
2015-09-10T03:00:43.829Z,95929
2015-09-10T03:01:02.456Z,95926
2015-09-10T03:01:20.909Z,95937
2015-09-10T03:01:39.534Z,95929
2015-09-10T03:01:57.988Z,95934
2015-09-10T03:02:16.444Z,95931
2015-09-10T03:02:34.803Z,95921
2015-09-10T03:02:53.491Z,95929
2015-09-10T03:03:18.820Z,95924
2015-09-10T03:03:37.210Z,95914
2015-09-10T03:03:55.632Z,95919
2015-09-10T03:04:14.103Z,95926
2015-09-10T03:04:32.447Z,95926
2015-09-10T03:04:51.072Z,95926
2015-09-10T03:05:09.480Z,95924
2015-09-10T03:05:27.855Z,95940
2015-09-10T03:05:46.230Z,95921
2015-09-10T03:06:04.605Z,95916
2015-09-10T03:06:23.013Z,95918
2015-09-10T03:06:41.701Z,95918
2015-09-10T03:07:00.154Z,95918
2015-09-10T03:07:18.687Z,95914
2015-09-10T03:07:37.421Z,95918
2015-09-10T03:07:55.890Z,95918
2015-09-10T03:08:14.345Z,95916
2015-09-10T03:08:33.142Z,95918
2015-09-10T03:08:51.533Z,95921
2015-09-10T03:09:09.908Z,95916
2015-09-10T03:09:28.612Z,95923
2015-09-10T03:09:47.190Z,95921
2015-09-10T03:10:05.784Z,95932
2015-09-10T03:10:24.317Z,95923
2015-09-10T03:10:42.848Z,95911
2015-09-10T03:11:01.395Z,95920
2015-09-10T03:11:19.788Z,95926
2015-09-10T03:11:38.538Z,95916
2015-09-10T03:11:56.913Z,95918
2015-09-10T03:12:15.288Z,95926
2015-09-10T03:12:33.649Z,95923
2015-09-10T03:12:52.587Z,95926
2015-09-10T03:13:11.040Z,95929
2015-09-10T03:13:29.682Z,95921
2015-09-10T03:13:48.104Z,95921
2015-09-10T03:14:06.573Z,95918
2015-09-10T03:14:24.982Z,95920
2015-09-10T03:14:43.654Z,95926
2015-09-10T03:15:02.623Z,95926
2015-09-10T03:15:21.156Z,95918
2015-09-10T03:15:39.687Z,95921
2015-09-10T03:15:58.062Z,95932
2015-09-10T03:16:16.437Z,95914
2015-09-10T03:16:35.236Z,95924
2015-09-10T03:16:53.799Z,95916
2015-09-10T03:17:12.674Z,95914
2015-09-10T03:17:31.301Z,95914
2015-09-10T03:17:49.973Z,95911
2015-09-10T03:18:08.410Z,95918
2015-09-10T03:18:26.990Z,95918
2015-09-10T03:18:45.912Z,95916
2015-09-10T03:19:04.506Z,95912
2015-09-10T03:19:22.928Z,95919
2015-09-10T03:19:41.555Z,95925
2015-09-10T03:19:59.961Z,95928
2015-09-10T03:20:18.383Z,95917
2015-09-10T03:20:36.869Z,95923
2015-09-10T03:20:55.338Z,95917
2015-09-10T03:21:13.947Z,95924
2015-09-10T03:21:32.308Z,95923
2015-09-10T03:21:51.152Z,95926
2015-09-10T03:22:09.620Z,95921
2015-09-10T03:22:36.935Z,95921
2015-09-10T03:22:55.279Z,95918
2015-09-10T03:23:13.779Z,95924
2015-09-10T03:23:32.357Z,95921
2015-09-10T03:23:50.968Z,95921
2015-09-10T03:24:09.437Z,95916
2015-09-10T03:24:28.187Z,95916
2015-09-10T03:24:46.642Z,95915
2015-09-10T03:25:05.173Z,95922
2015-09-10T03:25:23.783Z,95922
2015-09-10T03:25:42.285Z,95912
2015-09-10T03:26:00.831Z,95920
2015-09-10T03:26:19.206Z,95920
2015-09-10T03:26:37.738Z,95917
2015-09-10T03:26:56.177Z,95920
2015-09-10T03:27:14.708Z,95919
2015-09-10T03:27:33.146Z,95911
2015-09-10T03:27:51.554Z,95921
2015-09-10T03:28:10.070Z,95916
2015-09-10T03:28:28.710Z,95924
2015-09-10T03:28:47.120Z,95924
2015-09-10T03:29:05.854Z,95912
2015-09-10T03:29:24.354Z,95917
2015-09-10T03:29:42.886Z,95916
2015-09-10T03:30:01.277Z,95920
2015-09-10T03:30:19.746Z,95915
2015-09-10T03:30:38.324Z,95922
2015-09-10T03:30:56.810Z,95916
2015-09-10T03:31:15.185Z,95913
2015-09-10T03:31:33.701Z,95918
2015-09-10T03:31:52.062Z,95911
2015-09-10T03:32:10.437Z,95914
2015-09-10T03:32:28.859Z,95914
2015-09-10T03:32:47.283Z,95916
2015-09-10T03:33:05.845Z,95903
2015-09-10T03:33:24.314Z,95918
2015-09-10T03:33:42.595Z,95918
2015-09-10T03:34:01.019Z,95903
2015-09-10T03:34:19.488Z,95924
2015-09-10T03:34:37.863Z,95921
2015-09-10T03:34:56.412Z,95914
2015-09-10T03:35:14.959Z,95914
2015-09-10T03:35:33.318Z,95916
2015-09-10T03:35:51.789Z,95906
2015-09-10T03:36:10.476Z,95906
2015-09-10T03:36:29.258Z,95909
2015-09-10T03:36:47.619Z,95903
2015-09-10T03:37:06.447Z,95916
2015-09-10T03:37:24.963Z,95908
2015-09-10T03:37:43.885Z,95902
2015-09-10T03:38:02.387Z,95902
2015-09-10T03:38:21.184Z,95916
2015-09-10T03:38:39.777Z,95908
2015-09-10T03:38:58.186Z,95908
2015-09-10T03:39:16.826Z,95913
2015-09-10T03:39:35.279Z,95902
2015-09-10T03:39:53.766Z,95908
2015-09-10T03:40:12.250Z,95900
2015-09-10T03:40:30.734Z,95906
2015-09-10T03:40:49.172Z,95903
2015-09-10T03:41:07.580Z,95906
2015-09-10T03:41:26.049Z,95914
2015-09-10T03:41:44.471Z,95906
2015-09-10T03:42:03.098Z,95911
2015-09-10T03:42:21.551Z,95897
2015-09-10T03:42:40.176Z,95908
2015-09-10T03:42:58.569Z,95899
2015-09-10T03:43:17.287Z,95902
2015-09-10T03:43:35.772Z,95904
2015-09-10T03:43:54.133Z,95899
2015-09-10T03:44:12.508Z,95899
2015-09-10T03:44:30.883Z,95912
2015-09-10T03:44:49.602Z,95912
2015-09-10T03:45:08.229Z,95896
2015-09-10T03:45:26.604Z,95910
2015-09-10T03:45:45.151Z,95907
2015-09-10T03:46:03.700Z,95902
2015-09-10T03:46:21.996Z,95907
2015-09-10T03:46:40.528Z,95905
2015-09-10T03:46:59.091Z,95910
2015-09-10T03:47:17.638Z,95904
2015-09-10T03:47:36.060Z,95905
2015-09-10T03:47:54.482Z,95905
2015-09-10T03:48:13.124Z,95907
2015-09-10T03:48:31.734Z,95920
2015-09-10T03:48:50.156Z,95902
2015-09-10T03:49:08.517Z,95902
2015-09-10T03:49:27.033Z,95902
2015-09-10T03:49:45.517Z,95896
2015-09-10T03:50:04.004Z,95907
2015-09-10T03:50:22.286Z,95909
2015-09-10T03:50:40.723Z,95902
2015-09-10T03:50:59.380Z,95907
2015-09-10T03:51:17.865Z,95901
2015-09-10T03:51:36.271Z,95907
2015-09-10T03:51:54.693Z,95896
2015-09-10T03:52:13.070Z,95904
2015-09-10T03:52:31.632Z,95904
2015-09-10T03:52:50.007Z,95907
2015-09-10T03:53:08.463Z,95902
2015-09-10T03:53:26.900Z,95896
2015-09-10T03:53:45.572Z,95904
2015-09-10T03:54:04.011Z,95907
2015-09-10T03:54:22.371Z,95908
2015-09-10T03:54:40.761Z,95897
2015-09-10T03:54:59.355Z,95913
2015-09-10T03:55:17.748Z,95913
2015-09-10T03:55:36.123Z,95902
2015-09-10T03:55:54.482Z,95905
2015-09-10T03:56:12.890Z,95908
2015-09-10T03:56:31.500Z,95899
2015-09-10T03:56:50.062Z,95907
2015-09-10T03:57:08.767Z,95913
2015-09-10T03:57:27.158Z,95899
2015-09-10T03:57:45.908Z,95902
2015-09-10T03:58:04.486Z,95910
2015-09-10T03:58:22.987Z,95907